Terminal Aerodrome Forecast
Issued by NWS Grand Forks, ND

Home | Current Version | Previous Version | Graphics & Text | Print | Product List | Glossary On
Versions: 1 2 3 4 5 6 7 8 9 10 11 12 13 14 15 16 17 18 19 20 21 22
356
FTUS43 KFGF 192327
TAFGFK
TAF
KGFK 192327Z 2000/2024 13013KT P6SM BKN120
     FM200600 14012KT P6SM BKN080
     FM201300 17010KT P6SM VCSH OVC015
     FM201800 25009KT P6SM OVC008
     FM201900 26011KT P6SM BKN025
     FM202100 27013KT P6SM SCT060=

USA.gov is the U.S. government's official web portal to all federal, state and local government web resources and services.